createdAt,value
2018-10-11T00:01:06.488Z,26.43
2018-10-11T00:03:34.896Z,25.67
2018-10-11T00:06:03.241Z,27.03
2018-10-11T00:08:31.624Z,26.47
2018-10-11T00:10:59.961Z,26.27
2018-10-11T00:13:28.350Z,25.40
2018-10-11T00:15:56.718Z,26.40
2018-10-11T00:18:25.077Z,26.67
2018-10-11T00:20:53.437Z,26.10
2018-10-11T00:23:21.813Z,25.50
2018-10-11T00:25:50.153Z,27.00
2018-10-11T00:28:18.503Z,27.07
2018-10-11T00:30:46.931Z,26.67
2018-10-11T00:33:15.216Z,26.87
2018-10-11T00:35:43.577Z,27.07
2018-10-11T00:38:11.941Z,27.73
2018-10-11T00:40:40.272Z,27.03
2018-10-11T00:43:08.621Z,27.03
2018-10-11T00:45:37.304Z,27.73
2018-10-11T00:48:06.713Z,26.70
2018-10-11T00:50:35.063Z,27.90
2018-10-11T00:53:03.417Z,28.63
2018-10-11T00:55:31.884Z,28.90
2018-10-11T00:58:00.226Z,27.67
2018-10-11T01:00:28.565Z,28.83
2018-10-11T01:02:56.909Z,28.77
2018-10-11T01:05:25.244Z,30.27
2018-10-11T01:07:57.293Z,28.17
2018-10-11T01:10:25.632Z,31.50
2018-10-11T01:12:54.068Z,29.60
2018-10-11T01:15:22.397Z,30.17
2018-10-11T01:17:50.733Z,30.33
2018-10-11T01:20:19.058Z,29.93
2018-10-11T01:22:47.837Z,28.93
2018-10-11T01:25:16.217Z,31.27
2018-10-11T01:27:44.560Z,31.10
2018-10-11T01:30:13.034Z,30.27
2018-10-11T01:32:41.274Z,30.67
2018-10-11T01:35:09.597Z,31.20
2018-10-11T01:37:37.992Z,32.40
2018-10-11T01:40:06.464Z,34.00
2018-10-11T01:42:34.925Z,30.77
2018-10-11T01:45:03.265Z,31.77
2018-10-11T01:47:31.704Z,32.70
2018-10-11T01:50:00.028Z,34.17
2018-10-11T01:52:29.374Z,31.60
2018-10-11T01:54:57.731Z,34.40
2018-10-11T01:57:26.085Z,32.60
2018-10-11T01:59:54.421Z,32.00
2018-10-11T02:02:22.781Z,32.93
2018-10-11T02:04:51.108Z,32.30
2018-10-11T02:07:19.478Z,34.90
2018-10-11T02:09:47.806Z,32.90
2018-10-11T02:12:16.173Z,36.40
2018-10-11T02:14:44.497Z,32.67
2018-10-11T02:17:12.835Z,33.77
2018-10-11T02:19:41.177Z,36.33
2018-10-11T02:22:10.614Z,35.40
2018-10-11T02:24:41.081Z,34.87
2018-10-11T02:27:09.451Z,34.63
2018-10-11T02:29:39.125Z,34.67
2018-10-11T02:32:07.693Z,34.80
2018-10-11T02:34:35.964Z,34.37
2018-10-11T02:37:04.281Z,35.43
2018-10-11T02:39:32.614Z,35.43
2018-10-11T02:42:00.932Z,38.20
2018-10-11T02:44:29.260Z,35.80
2018-10-11T02:46:57.597Z,38.80
2018-10-11T02:49:26.013Z,35.70
2018-10-11T02:51:54.377Z,35.30
2018-10-11T02:54:22.781Z,36.27
2018-10-11T02:56:55.299Z,36.30
2018-10-11T02:59:31.592Z,34.50
2018-10-11T03:02:00.760Z,37.70
2018-10-11T03:04:29.834Z,37.77
2018-10-11T03:06:58.872Z,37.00
2018-10-11T03:09:27.533Z,35.37
2018-10-11T03:11:55.973Z,36.07
2018-10-11T03:14:24.660Z,37.60
2018-10-11T03:16:53.413Z,34.50
2018-10-11T03:19:21.789Z,37.07
2018-10-11T03:21:50.161Z,35.07
2018-10-11T03:24:18.534Z,38.50
2018-10-11T03:26:46.880Z,36.40
2018-10-11T03:29:15.237Z,35.80
2018-10-11T03:31:43.580Z,36.60
2018-10-11T03:34:11.948Z,37.53
2018-10-11T03:36:40.409Z,37.57
2018-10-11T03:39:08.960Z,37.03
2018-10-11T03:41:37.304Z,37.13
2018-10-11T03:44:05.672Z,35.47
2018-10-11T03:46:35.013Z,36.70
2018-10-11T03:49:03.377Z,36.20
2018-10-11T03:51:31.750Z,36.40
2018-10-11T03:54:00.501Z,37.37
2018-10-11T03:56:28.904Z,36.07
2018-10-11T03:58:58.988Z,37.10
2018-10-11T04:01:27.382Z,37.73
2018-10-11T04:03:56.458Z,38.30
2018-10-11T04:06:25.885Z,38.57
2018-10-11T04:08:54.754Z,38.20
2018-10-11T04:11:25.276Z,35.77
2018-10-11T04:13:53.611Z,36.37
2018-10-11T04:16:21.940Z,38.23
2018-10-11T04:18:50.409Z,35.13
2018-10-11T04:21:18.767Z,35.73
2018-10-11T04:23:47.096Z,37.93
2018-10-11T04:26:15.522Z,35.40
2018-10-11T04:28:44.953Z,37.27
2018-10-11T04:31:13.281Z,37.57
2018-10-11T04:33:41.664Z,36.57
2018-10-11T04:36:10.090Z,38.77
2018-10-11T04:38:38.401Z,39.17
2018-10-11T04:41:07.373Z,36.93
2018-10-11T04:43:35.707Z,37.00
2018-10-11T04:46:04.062Z,36.30
2018-10-11T04:48:32.434Z,39.40
2018-10-11T04:51:01.851Z,37.90
2018-10-11T04:53:30.181Z,40.17
2018-10-11T04:55:58.565Z,39.67
2018-10-11T04:58:26.915Z,40.30
2018-10-11T05:00:55.293Z,36.80
2018-10-11T05:03:23.671Z,39.83
2018-10-11T05:05:52.031Z,38.33
2018-10-11T05:08:20.385Z,38.27
2018-10-11T05:10:48.840Z,34.97
2018-10-11T05:13:17.694Z,36.27
2018-10-11T05:15:46.047Z,36.80
2018-10-11T05:18:17.013Z,37.00
2018-10-11T05:20:45.529Z,38.90
2018-10-11T05:23:14.901Z,37.30
2018-10-11T05:25:43.337Z,36.50
2018-10-11T05:28:13.757Z,36.90
2018-10-11T05:30:44.638Z,37.10
2018-10-11T05:33:13.549Z,36.10
2018-10-11T05:35:41.902Z,35.90
2018-10-11T05:38:10.264Z,37.80
2018-10-11T05:40:38.632Z,37.93
2018-10-11T05:43:07.060Z,36.93
2018-10-11T05:45:36.368Z,37.47
2018-10-11T05:48:04.773Z,36.93
2018-10-11T05:50:33.469Z,37.77
2018-10-11T05:53:01.884Z,37.70
2018-10-11T05:55:30.317Z,36.47
2018-10-11T05:57:58.721Z,37.43
2018-10-11T06:00:27.145Z,39.07
2018-10-11T06:03:01.057Z,37.17
2018-10-11T06:05:31.129Z,37.70
2018-10-11T06:08:00.647Z,37.47
2018-10-11T06:10:31.611Z,37.67
2018-10-11T06:13:01.091Z,37.37
2018-10-11T06:15:29.636Z,38.40
2018-10-11T06:17:58.051Z,38.73
2018-10-11T06:20:26.429Z,36.70
2018-10-11T06:22:54.769Z,37.00
2018-10-11T06:25:25.141Z,37.60
2018-10-11T06:27:53.553Z,35.47
2018-10-11T06:30:21.962Z,35.73
2018-10-11T06:32:50.468Z,34.97
2018-10-11T06:35:18.925Z,37.80
2018-10-11T06:37:47.284Z,38.33
2018-10-11T06:40:15.652Z,35.43
2018-10-11T06:42:44.843Z,38.00
2018-10-11T06:45:14.432Z,36.10
2018-10-11T06:47:45.453Z,33.97
2018-10-11T06:50:14.943Z,34.00
2018-10-11T06:52:43.308Z,38.17
2018-10-11T06:55:11.703Z,36.47
2018-10-11T06:57:40.041Z,36.90
2018-10-11T07:00:08.397Z,33.80
2018-10-11T07:02:36.750Z,33.83
2018-10-11T07:05:05.151Z,34.33
2018-10-11T07:07:33.516Z,33.80
2018-10-11T07:10:01.905Z,34.00
2018-10-11T07:12:31.300Z,33.80
2018-10-11T07:14:59.660Z,32.63
2018-10-11T07:17:28.033Z,34.53
2018-10-11T07:19:56.392Z,34.77
2018-10-11T07:22:24.748Z,35.87
2018-10-11T07:24:53.148Z,33.40
2018-10-11T07:27:21.504Z,33.00
2018-10-11T07:29:50.882Z,33.77
2018-10-11T07:32:24.833Z,34.17
2018-10-11T07:34:53.322Z,33.40
2018-10-11T07:37:21.632Z,33.60
2018-10-11T07:39:50.756Z,34.20
2018-10-11T07:42:19.142Z,34.60
2018-10-11T07:44:47.574Z,33.77
2018-10-11T07:47:15.978Z,32.97
2018-10-11T07:49:44.349Z,32.53
2018-10-11T07:52:12.740Z,32.10
2018-10-11T07:54:41.119Z,32.53
2018-10-11T07:57:09.497Z,32.57
2018-10-11T07:59:37.860Z,33.00
2018-10-11T08:02:06.268Z,32.03
2018-10-11T08:04:34.627Z,30.90
2018-10-11T08:07:03.083Z,30.00
2018-10-11T08:09:31.486Z,29.50
2018-10-11T08:12:00.091Z,30.37
2018-10-11T08:14:29.306Z,32.00
2018-10-11T08:16:57.799Z,30.33
2018-10-11T08:19:26.381Z,30.90
2018-10-11T08:21:54.402Z,30.07
2018-10-11T08:24:22.815Z,29.23
2018-10-11T08:26:51.210Z,28.57
2018-10-11T08:29:19.519Z,30.63
2018-10-11T08:31:49.064Z,28.63
2018-10-11T08:34:17.309Z,27.50
2018-10-11T08:36:46.753Z,31.37
2018-10-11T08:39:15.168Z,30.37
2018-10-11T08:41:43.548Z,29.83
2018-10-11T08:44:13.393Z,29.77
2018-10-11T08:46:42.912Z,30.77
2018-10-11T08:49:11.374Z,29.10
2018-10-11T08:51:39.748Z,29.67
2018-10-11T08:54:15.336Z,28.10
2018-10-11T08:56:43.785Z,29.30
2018-10-11T08:59:13.337Z,28.27
2018-10-11T09:01:41.647Z,28.83
2018-10-11T09:04:10.092Z,29.43
2018-10-11T09:06:38.411Z,29.30
2018-10-11T09:09:09.850Z,28.67
2018-10-11T09:11:38.307Z,27.23
2018-10-11T09:14:06.811Z,29.33
2018-10-11T09:16:35.533Z,28.33
2018-10-11T09:19:04.054Z,29.67
2018-10-11T09:21:33.050Z,28.10
2018-10-11T09:24:01.422Z,27.80
2018-10-11T09:26:29.861Z,25.47
2018-10-11T09:28:58.264Z,28.27
2018-10-11T09:31:26.663Z,28.20
2018-10-11T09:33:55.061Z,27.33
2018-10-11T09:36:24.558Z,30.00
2018-10-11T09:38:53.542Z,31.60
2018-10-11T09:41:22.012Z,26.40
2018-10-11T09:43:50.361Z,28.17
2018-10-11T09:46:18.805Z,26.93
2018-10-11T09:48:47.208Z,27.20
2018-10-11T09:51:15.549Z,29.87
2018-10-11T09:53:43.965Z,28.10
2018-10-11T09:56:12.340Z,28.23
2018-10-11T09:58:40.716Z,27.50
2018-10-11T10:01:16.524Z,27.23
2018-10-11T10:03:44.913Z,26.70
2018-10-11T10:06:13.293Z,26.40
2018-10-11T10:08:41.668Z,27.90
2018-10-11T10:11:10.081Z,24.93
2018-10-11T10:13:38.450Z,26.70
2018-10-11T10:16:06.829Z,26.07
2018-10-11T10:18:35.181Z,26.47
2018-10-11T10:21:03.614Z,25.60
2018-10-11T10:23:31.945Z,25.17
2018-10-11T10:26:00.321Z,25.87
2018-10-11T10:28:28.707Z,25.13
2018-10-11T10:30:58.113Z,25.20
2018-10-11T10:33:26.464Z,25.30
2018-10-11T10:35:54.834Z,26.07
2018-10-11T10:38:25.234Z,25.70
2018-10-11T10:40:53.657Z,24.90
2018-10-11T10:43:22.021Z,23.97
2018-10-11T10:45:50.406Z,28.37
2018-10-11T10:48:20.783Z,27.53
2018-10-11T10:50:49.138Z,26.73
2018-10-11T10:53:17.572Z,28.70
2018-10-11T10:55:45.959Z,25.20
2018-10-11T10:58:14.342Z,26.93
2018-10-11T11:00:42.860Z,25.70
2018-10-11T11:03:11.228Z,26.67
2018-10-11T11:05:39.629Z,25.97
2018-10-11T11:08:08.089Z,24.23
2018-10-11T11:10:36.485Z,25.53
2018-10-11T11:13:05.991Z,25.50
2018-10-11T11:15:34.389Z,24.63
2018-10-11T11:18:03.785Z,25.03
2018-10-11T11:20:32.141Z,23.73
2018-10-11T11:23:00.541Z,25.17
2018-10-11T11:25:30.893Z,27.47
2018-10-11T11:27:59.281Z,24.13
2018-10-11T11:30:27.751Z,23.40
2018-10-11T11:32:56.169Z,23.97
2018-10-11T11:35:24.514Z,23.57
2018-10-11T11:37:53.865Z,25.47
2018-10-11T11:40:22.221Z,23.23
2018-10-11T11:42:50.598Z,23.33
2018-10-11T11:45:18.943Z,24.13
2018-10-11T11:47:47.281Z,24.00
2018-10-11T11:50:15.624Z,23.50
2018-10-11T11:52:44.924Z,22.97
2018-10-11T11:55:14.305Z,23.73
2018-10-11T11:57:42.732Z,23.20
2018-10-11T12:00:12.175Z,22.50
2018-10-11T12:02:44.637Z,22.47
2018-10-11T12:05:13.098Z,24.10
2018-10-11T12:07:42.068Z,22.13
2018-10-11T12:10:10.477Z,21.70
2018-10-11T12:13:12.609Z,21.93
2018-10-11T12:15:42.337Z,21.40
2018-10-11T12:18:11.622Z,22.47
2018-10-11T12:20:41.150Z,22.43
2018-10-11T12:23:10.528Z,21.63
2018-10-11T12:25:38.986Z,21.93
2018-10-11T12:28:07.767Z,22.63
2018-10-11T12:30:36.431Z,22.77
2018-10-11T12:33:06.525Z,21.00
2018-10-11T12:35:35.938Z,21.00
2018-10-11T12:38:04.305Z,20.00
2018-10-11T12:40:32.701Z,19.60
2018-10-11T12:43:01.097Z,19.67
2018-10-11T12:45:29.477Z,20.57
2018-10-11T12:47:57.845Z,22.23
2018-10-11T12:50:26.274Z,21.83
2018-10-11T12:52:54.618Z,21.17
2018-10-11T12:55:24.017Z,21.07
2018-10-11T12:57:53.389Z,21.67
2018-10-11T13:00:21.768Z,20.37
2018-10-11T13:02:50.221Z,21.50
2018-10-11T13:05:18.540Z,20.93
2018-10-11T13:07:48.966Z,20.53
2018-10-11T13:10:17.330Z,19.83
2018-10-11T13:12:45.685Z,21.30
2018-10-11T13:15:14.296Z,20.97
2018-10-11T13:17:43.976Z,19.47
2018-10-11T13:20:11.888Z,21.43
2018-10-11T13:22:40.308Z,21.40
2018-10-11T13:25:10.688Z,22.00
2018-10-11T13:27:40.121Z,22.00
2018-10-11T13:30:09.616Z,21.30
2018-10-11T13:32:37.964Z,19.07
2018-10-11T13:35:07.076Z,19.70
2018-10-11T13:37:35.336Z,21.80
2018-10-11T13:40:03.855Z,19.00
2018-10-11T13:42:32.221Z,22.23
2018-10-11T13:45:01.599Z,19.37
2018-10-11T13:47:29.958Z,20.07
2018-10-11T13:49:59.314Z,19.53
2018-10-11T13:52:27.677Z,20.87
2018-10-11T13:54:56.101Z,19.37
2018-10-11T13:57:26.845Z,19.17
2018-10-11T13:59:52.949Z,18.60
2018-10-11T14:02:21.337Z,18.93
2018-10-11T14:04:51.827Z,21.20
2018-10-11T14:07:20.238Z,19.03
2018-10-11T14:09:48.623Z,20.90
2018-10-11T14:12:16.996Z,19.47
2018-10-11T14:14:45.345Z,19.83
2018-10-11T14:17:13.701Z,19.30
2018-10-11T14:19:48.047Z,19.77
2018-10-11T14:22:16.397Z,19.90
2018-10-11T14:24:44.769Z,19.33
2018-10-11T14:27:13.148Z,19.40
2018-10-11T14:29:41.533Z,19.60
2018-10-11T14:32:09.917Z,19.50
2018-10-11T14:34:39.301Z,17.83
2018-10-11T14:37:07.842Z,18.83
2018-10-11T14:39:36.057Z,18.63
2018-10-11T14:42:04.475Z,18.17
2018-10-11T14:44:32.812Z,18.17
2018-10-11T14:47:01.200Z,17.90
2018-10-11T14:49:29.598Z,18.50
2018-10-11T14:51:57.960Z,17.77
2018-10-11T14:54:26.341Z,18.80
2018-10-11T14:56:56.742Z,17.57
2018-10-11T14:59:25.110Z,18.33
2018-10-11T15:01:53.449Z,20.27
2018-10-11T15:04:21.807Z,19.30
2018-10-11T15:06:50.178Z,17.83
2018-10-11T15:09:18.573Z,18.60
2018-10-11T15:11:46.993Z,17.67
2018-10-11T15:14:15.320Z,18.40
2018-10-11T15:16:43.749Z,19.47
2018-10-11T15:19:12.105Z,16.87
2018-10-11T15:21:40.465Z,16.70
2018-10-11T15:24:09.221Z,16.37
2018-10-11T15:26:39.667Z,17.73
2018-10-11T15:29:09.067Z,17.30
2018-10-11T15:31:37.461Z,16.90
2018-10-11T15:34:05.824Z,19.17
2018-10-11T15:36:34.197Z,17.93
2018-10-11T15:39:04.282Z,18.07
2018-10-11T15:41:32.641Z,18.03
2018-10-11T15:44:00.988Z,18.40
2018-10-11T15:46:29.401Z,18.90
2018-10-11T15:48:57.749Z,19.87
2018-10-11T15:51:26.195Z,17.97
2018-10-11T15:53:54.586Z,21.00
2018-10-11T15:56:22.920Z,20.03
2018-10-11T15:58:51.300Z,21.27
2018-10-11T16:01:19.695Z,21.37
2018-10-11T16:03:48.108Z,21.33
2018-10-11T16:06:16.568Z,19.33
2018-10-11T16:08:44.928Z,19.77
2018-10-11T16:11:13.272Z,19.87
2018-10-11T16:13:41.714Z,18.33
2018-10-11T16:16:10.032Z,20.57
2018-10-11T16:18:38.418Z,19.07
2018-10-11T16:21:09.425Z,19.40
2018-10-11T16:23:37.809Z,20.80
2018-10-11T16:27:09.251Z,19.00
2018-10-11T16:29:38.668Z,21.30
2018-10-11T16:32:07.076Z,20.17
2018-10-11T16:37:26.178Z,20.47
2018-10-11T16:39:54.554Z,21.30
2018-10-11T16:42:22.941Z,22.03
2018-10-11T16:44:51.357Z,20.43
2018-10-11T16:47:19.745Z,21.97
2018-10-11T16:49:48.212Z,22.10
2018-10-11T16:52:16.520Z,20.40
2018-10-11T16:54:45.352Z,21.57
2018-10-11T16:57:15.128Z,21.50
2018-10-11T16:59:45.017Z,19.00
2018-10-11T17:02:13.629Z,21.43
2018-10-11T17:04:42.016Z,22.97
2018-10-11T17:07:10.401Z,23.00
2018-10-11T17:09:38.803Z,21.30
2018-10-11T17:12:07.153Z,21.70
2018-10-11T17:14:35.553Z,23.50
2018-10-11T17:17:03.928Z,21.73
2018-10-11T17:19:32.319Z,22.10
2018-10-11T17:22:00.786Z,21.07
2018-10-11T17:24:33.092Z,24.47
2018-10-11T17:27:01.804Z,24.27
2018-10-11T17:29:30.239Z,26.13
2018-10-11T17:31:58.964Z,27.40
2018-10-11T17:34:27.458Z,25.00
2018-10-11T17:36:55.809Z,27.50
2018-10-11T17:39:24.165Z,27.30
2018-10-11T17:41:52.539Z,26.43
2018-10-11T17:44:20.916Z,24.20
2018-10-11T17:46:49.308Z,25.30
2018-10-11T17:49:17.689Z,25.23
2018-10-11T17:51:46.084Z,25.60
2018-10-11T17:54:14.464Z,20.97
2018-10-11T17:56:42.947Z,22.70
2018-10-11T17:59:11.326Z,23.13
2018-10-11T18:01:39.709Z,22.53
2018-10-11T18:04:08.166Z,21.83
2018-10-11T18:06:37.272Z,22.20
2018-10-11T18:09:07.408Z,22.80
2018-10-11T18:11:37.796Z,21.73
2018-10-11T18:14:06.770Z,23.30
2018-10-11T18:16:35.151Z,20.50
2018-10-11T18:19:03.593Z,21.47
2018-10-11T18:21:31.979Z,19.80
2018-10-11T18:24:00.429Z,21.33
2018-10-11T18:26:28.809Z,21.53
2018-10-11T18:28:57.260Z,21.50
2018-10-11T18:31:25.653Z,21.20
2018-10-11T18:33:54.053Z,20.23
2018-10-11T18:36:22.526Z,19.20
2018-10-11T18:38:50.877Z,21.20
2018-10-11T18:41:19.477Z,20.50
2018-10-11T18:43:47.848Z,22.20
2018-10-11T18:46:16.261Z,20.70
2018-10-11T18:48:44.649Z,21.37
2018-10-11T18:51:13.030Z,21.37
2018-10-11T18:53:41.403Z,20.77
2018-10-11T18:56:09.953Z,21.20
2018-10-11T18:58:38.342Z,19.57
2018-10-11T19:01:06.730Z,21.00
2018-10-11T19:03:36.231Z,20.87
2018-10-11T19:06:05.726Z,20.83
2018-10-11T19:08:34.089Z,19.33
2018-10-11T19:11:02.476Z,21.17
2018-10-11T19:13:32.905Z,19.27
2018-10-11T19:16:02.375Z,18.83
2018-10-11T19:18:34.060Z,19.70
2018-10-11T19:21:04.321Z,18.00
2018-10-11T19:23:32.725Z,20.50
2018-10-11T19:26:01.132Z,19.23
2018-10-11T19:28:29.743Z,18.43
2018-10-11T19:31:00.852Z,20.00
2018-10-11T19:33:29.248Z,19.57
2018-10-11T19:35:57.612Z,19.50
2018-10-11T19:38:26.997Z,20.30
2018-10-11T19:40:55.393Z,24.50
2018-10-11T19:43:23.756Z,26.10
2018-10-11T19:45:52.728Z,25.97
2018-10-11T19:48:22.216Z,21.40
2018-10-11T19:50:50.737Z,22.30
2018-10-11T19:53:19.170Z,21.03
2018-10-11T19:55:47.557Z,19.77
2018-10-11T19:58:16.492Z,20.60
2018-10-11T20:00:44.926Z,21.80
2018-10-11T20:03:13.289Z,21.63
2018-10-11T20:05:42.752Z,21.77
2018-10-11T20:08:11.246Z,21.10
2018-10-11T20:10:39.545Z,24.10
2018-10-11T20:13:07.964Z,26.17
2018-10-11T20:15:37.445Z,24.87
2018-10-11T20:18:05.925Z,25.80
2018-10-11T20:20:34.361Z,22.53
2018-10-11T20:23:02.821Z,20.90
2018-10-11T20:25:31.194Z,21.53
2018-10-11T20:28:00.573Z,21.63
2018-10-11T20:30:29.054Z,21.10
2018-10-11T20:32:57.496Z,22.20
2018-10-11T20:35:25.838Z,21.90
2018-10-11T20:37:55.357Z,21.90
2018-10-11T20:40:23.721Z,25.83
2018-10-11T20:42:52.087Z,23.23
2018-10-11T20:45:20.548Z,22.17
2018-10-11T20:47:48.960Z,23.33
2018-10-11T20:50:17.333Z,27.60
2018-10-11T20:52:45.731Z,25.70
2018-10-11T20:55:14.148Z,25.77
2018-10-11T20:57:42.501Z,22.40
2018-10-11T21:00:11.193Z,21.87
2018-10-11T21:02:39.617Z,22.97
2018-10-11T21:05:08.032Z,25.53
2018-10-11T21:07:36.545Z,23.23
2018-10-11T21:10:06.690Z,22.67
2018-10-11T21:12:35.080Z,22.30
2018-10-11T21:15:03.598Z,24.87
2018-10-11T21:17:32.017Z,23.07
2018-10-11T21:20:00.430Z,22.20
2018-10-11T21:22:28.805Z,23.05
2018-10-11T21:24:57.165Z,23.60
2018-10-11T21:27:25.549Z,21.83
2018-10-11T21:29:54.065Z,24.20
2018-10-11T21:32:22.429Z,23.43
2018-10-11T21:34:50.800Z,21.90
2018-10-11T21:37:19.173Z,22.30
2018-10-11T21:39:47.535Z,20.97
2018-10-11T21:42:15.965Z,23.60
2018-10-11T21:44:45.366Z,22.77
2018-10-11T21:47:13.789Z,20.40
2018-10-11T21:49:42.176Z,20.73
2018-10-11T21:52:10.801Z,21.40
2018-10-11T21:54:39.172Z,21.30
2018-10-11T21:57:07.780Z,21.70
2018-10-11T21:59:36.185Z,21.57
2018-10-11T22:02:04.529Z,22.00
2018-10-11T22:04:32.992Z,21.27
2018-10-11T22:07:01.412Z,25.77
2018-10-11T22:09:29.826Z,21.63
2018-10-11T22:11:58.232Z,23.83
2018-10-11T22:14:26.691Z,20.13
2018-10-11T22:16:55.481Z,20.20
2018-10-11T22:19:24.385Z,22.47
2018-10-11T22:21:52.954Z,21.80
2018-10-11T22:24:21.320Z,20.20
2018-10-11T22:26:51.646Z,21.93
2018-10-11T22:29:20.061Z,21.80
2018-10-11T22:31:49.539Z,22.10
2018-10-11T22:34:17.961Z,22.63
2018-10-11T22:36:46.421Z,23.40
2018-10-11T22:39:14.757Z,21.07
2018-10-11T22:41:44.173Z,20.53
2018-10-11T22:44:12.983Z,22.77
2018-10-11T22:46:42.073Z,21.53
2018-10-11T22:49:10.971Z,21.27
2018-10-11T22:51:39.913Z,21.90
2018-10-11T22:54:09.024Z,20.10
2018-10-11T22:56:37.413Z,20.50
2018-10-11T22:59:06.096Z,21.17
2018-10-11T23:01:34.496Z,21.53
2018-10-11T23:04:02.937Z,22.50
2018-10-11T23:06:31.386Z,22.17
2018-10-11T23:08:59.800Z,23.47
2018-10-11T23:11:28.227Z,22.07
2018-10-11T23:13:56.765Z,21.50
2018-10-11T23:16:25.424Z,21.67
2018-10-11T23:18:53.814Z,21.77
2018-10-11T23:21:22.228Z,22.67
2018-10-11T23:23:50.653Z,21.77
2018-10-11T23:26:19.064Z,23.23
2018-10-11T23:28:47.468Z,22.57
2018-10-11T23:31:15.848Z,21.70
2018-10-11T23:33:44.304Z,22.00
2018-10-11T23:36:13.789Z,21.53
2018-10-11T23:38:42.176Z,21.80
2018-10-11T23:41:10.537Z,23.03
2018-10-11T23:43:39.143Z,20.30
2018-10-11T23:46:08.648Z,21.43
2018-10-11T23:48:36.994Z,22.10
2018-10-11T23:51:05.401Z,21.43
2018-10-11T23:53:33.860Z,21.13
2018-10-11T23:56:02.742Z,23.23
2018-10-11T23:58:31.097Z,23.50
